createdAt,value
2022-10-11T00:00:15.911Z,5.00
2022-10-11T00:02:43.548Z,5.32
2022-10-11T00:05:11.586Z,4.80
2022-10-11T00:07:39.324Z,4.47
2022-10-11T00:10:07.694Z,4.10
2022-10-11T00:12:35.385Z,3.80
2022-10-11T00:15:04.824Z,4.43
2022-10-11T00:17:32.686Z,5.10
2022-10-11T00:20:00.564Z,4.40
2022-10-11T00:22:28.196Z,4.57
2022-10-11T00:24:55.894Z,5.20
2022-10-11T00:27:23.543Z,4.88
2022-10-11T00:29:51.199Z,4.32
2022-10-11T00:32:20.308Z,4.28
2022-10-11T00:34:48.115Z,4.93
2022-10-11T00:37:15.739Z,4.00
2022-10-11T00:39:43.345Z,3.92
2022-10-11T00:42:13.318Z,3.80
2022-10-11T00:44:43.845Z,3.60
2022-10-11T00:47:14.243Z,4.95
2022-10-11T00:49:44.679Z,5.78
2022-10-11T00:52:16.075Z,4.22
2022-10-11T00:54:45.047Z,4.55
2022-10-11T00:57:14.238Z,4.40
2022-10-11T00:59:44.901Z,4.82
2022-10-11T01:02:12.925Z,4.65
2022-10-11T01:04:40.523Z,3.90
2022-10-11T01:07:09.961Z,3.90
2022-10-11T01:09:37.916Z,3.53
2022-10-11T01:12:07.937Z,3.83
2022-10-11T01:14:40.189Z,4.07
2022-10-11T01:17:11.531Z,3.83
2022-10-11T01:19:57.837Z,4.10
2022-10-11T01:22:39.378Z,3.97
2022-10-11T01:25:24.865Z,4.60
2022-10-11T01:28:02.228Z,3.70
2022-10-11T01:30:32.760Z,4.32
2022-10-11T01:33:10.448Z,4.93
2022-10-11T01:35:40.752Z,4.07
2022-10-11T01:38:12.076Z,3.67
2022-10-11T01:40:42.123Z,3.65
2022-10-11T01:43:11.123Z,4.18
2022-10-11T01:45:41.534Z,4.43
2022-10-11T01:48:10.455Z,3.13
2022-10-11T01:50:40.348Z,4.05
2022-10-11T01:53:14.700Z,3.80
2022-10-11T01:55:46.446Z,3.28
2022-10-11T01:58:18.507Z,4.00
2022-10-11T02:00:51.029Z,4.07
2022-10-11T02:03:20.863Z,3.58
2022-10-11T02:05:51.693Z,4.10
2022-10-11T02:08:22.487Z,3.40
2022-10-11T02:10:52.802Z,3.88
2022-10-11T02:13:23.618Z,3.67
2022-10-11T02:15:53.825Z,3.40
2022-10-11T02:18:24.023Z,3.97
2022-10-11T02:20:52.561Z,3.30
2022-10-11T02:23:22.022Z,4.00
2022-10-11T02:25:50.407Z,5.00
2022-10-11T02:28:20.374Z,3.17
2022-10-11T02:30:48.904Z,3.42
2022-10-11T02:33:19.508Z,3.67
2022-10-11T02:35:49.560Z,3.88
2022-10-11T02:38:20.172Z,3.35
2022-10-11T02:40:49.259Z,4.07
2022-10-11T02:43:19.251Z,3.08
2022-10-11T02:45:50.046Z,3.38
2022-10-11T02:48:19.286Z,3.03
2022-10-11T02:50:46.973Z,3.55
2022-10-11T02:53:14.587Z,3.92
2022-10-11T02:55:42.165Z,3.53
2022-10-11T02:58:09.787Z,2.92
2022-10-11T03:00:37.381Z,3.28
2022-10-11T03:03:04.977Z,4.28
2022-10-11T03:05:40.398Z,3.90
2022-10-11T03:10:36.180Z,3.50
2022-10-11T03:13:04.384Z,2.92
2022-10-11T03:15:32.007Z,3.42
2022-10-11T03:17:59.615Z,3.05
2022-10-11T03:20:27.494Z,3.38
2022-10-11T03:22:58.716Z,3.08
2022-10-11T03:25:26.579Z,3.08
2022-10-11T03:27:54.187Z,4.03
2022-10-11T03:30:21.836Z,3.38
2022-10-11T03:32:49.429Z,3.90
2022-10-11T03:35:17.876Z,3.83
2022-10-11T03:37:45.805Z,3.88
2022-10-11T03:40:15.129Z,3.33
2022-10-11T03:42:42.723Z,3.65
2022-10-11T03:45:10.932Z,3.88
2022-10-11T03:47:39.175Z,3.17
2022-10-11T03:50:07.384Z,5.50
2022-10-11T03:52:35.199Z,3.47
2022-10-11T03:55:02.798Z,3.58
2022-10-11T03:57:31.790Z,3.95
2022-10-11T03:59:59.423Z,3.50
2022-10-11T04:02:27.051Z,2.53
2022-10-11T04:04:54.825Z,2.80
2022-10-11T04:07:22.438Z,2.97
2022-10-11T04:09:50.137Z,3.05
2022-10-11T04:12:17.777Z,2.75
2022-10-11T04:14:47.204Z,3.45
2022-10-11T04:17:14.806Z,3.40
2022-10-11T04:19:42.427Z,2.83
2022-10-11T04:22:10.156Z,2.88
2022-10-11T04:24:37.746Z,3.60
2022-10-11T04:27:06.559Z,2.80
2022-10-11T04:29:34.287Z,3.05
2022-10-11T04:32:03.461Z,3.38
2022-10-11T04:34:31.458Z,4.38
2022-10-11T04:36:59.042Z,4.47
2022-10-11T04:39:26.681Z,3.05
2022-10-11T04:41:54.413Z,3.17
2022-10-11T04:44:22.025Z,2.95
2022-10-11T04:46:49.862Z,4.25
2022-10-11T04:49:18.806Z,3.90
2022-10-11T04:51:46.627Z,5.95
2022-10-11T04:54:14.262Z,4.10
2022-10-11T04:56:44.301Z,5.95
2022-10-11T04:59:12.150Z,4.78
2022-10-11T05:01:39.814Z,4.50
2022-10-11T05:04:07.529Z,4.63
2022-10-11T05:06:39.422Z,5.20
2022-10-11T05:09:07.017Z,4.43
2022-10-11T05:11:34.885Z,4.43
2022-10-11T05:14:02.508Z,4.00
2022-10-11T05:16:30.146Z,4.07
2022-10-11T05:18:57.809Z,3.92
2022-10-11T05:21:26.262Z,2.92
2022-10-11T05:23:56.309Z,3.55
2022-10-11T05:26:24.890Z,3.38
2022-10-11T05:28:52.889Z,3.35
2022-10-11T05:31:20.927Z,4.05
2022-10-11T05:33:48.664Z,3.22
2022-10-11T05:36:16.268Z,3.58
2022-10-11T05:38:43.906Z,3.17
2022-10-11T05:41:13.822Z,3.50
2022-10-11T05:43:41.657Z,3.90
2022-10-11T05:46:09.429Z,3.53
2022-10-11T05:48:37.484Z,3.40
2022-10-11T05:51:06.396Z,3.63
2022-10-11T05:53:34.045Z,3.80
2022-10-11T05:56:02.073Z,3.55
2022-10-11T05:58:31.378Z,3.60
2022-10-11T06:00:59.084Z,3.25
2022-10-11T06:03:26.866Z,3.78
2022-10-11T06:06:03.124Z,3.28
2022-10-11T06:08:31.520Z,3.47
2022-10-11T06:10:59.206Z,3.70
2022-10-11T06:13:26.906Z,3.35
2022-10-11T06:15:55.865Z,3.13
2022-10-11T06:18:23.500Z,3.72
2022-10-11T06:20:51.222Z,4.03
2022-10-11T06:23:18.869Z,3.33
2022-10-11T06:25:56.244Z,3.33
2022-10-11T06:28:23.971Z,2.78
2022-10-11T06:30:51.588Z,4.50
2022-10-11T06:33:20.562Z,3.60
2022-10-11T06:35:48.267Z,3.83
2022-10-11T06:38:16.004Z,3.35
2022-10-11T06:40:43.586Z,3.17
2022-10-11T06:43:11.212Z,3.97
2022-10-11T06:45:38.953Z,4.35
2022-10-11T06:48:06.866Z,3.42
2022-10-11T06:50:58.584Z,3.67
2022-10-11T06:53:23.535Z,4.50
2022-10-11T06:55:51.148Z,4.68
2022-10-11T06:58:19.277Z,3.20
2022-10-11T07:00:46.939Z,4.07
2022-10-11T07:03:14.608Z,2.95
2022-10-11T07:05:43.583Z,3.85
2022-10-11T07:08:11.197Z,2.92
2022-10-11T07:10:38.759Z,3.10
2022-10-11T07:13:06.366Z,3.15
2022-10-11T07:15:38.141Z,3.22
2022-10-11T07:18:07.544Z,3.55
2022-10-11T07:20:35.418Z,2.53
2022-10-11T07:23:04.324Z,3.20
2022-10-11T07:25:34.904Z,3.10
2022-10-11T07:28:02.558Z,4.00
2022-10-11T07:30:30.240Z,3.40
2022-10-11T07:32:57.851Z,3.38
2022-10-11T07:35:25.478Z,3.28
2022-10-11T07:37:53.103Z,4.10
2022-10-11T07:40:22.218Z,4.88
2022-10-11T07:42:49.896Z,5.30
2022-10-11T07:45:17.566Z,5.65
2022-10-11T07:47:46.631Z,5.22
2022-10-11T07:50:14.513Z,6.90
2022-10-11T07:52:42.111Z,4.43
2022-10-11T07:55:10.230Z,5.65
2022-10-11T07:57:39.213Z,5.00
2022-10-11T08:00:07.564Z,5.53
2022-10-11T08:02:35.167Z,7.70
2022-10-11T08:05:02.846Z,6.53
2022-10-11T08:07:30.859Z,7.35
2022-10-11T08:09:58.486Z,7.93
2022-10-11T08:12:29.122Z,7.63
2022-10-11T08:14:58.879Z,7.53
2022-10-11T08:17:26.498Z,6.90
2022-10-11T08:19:54.127Z,6.18
2022-10-11T08:22:21.752Z,8.48
2022-10-11T08:24:50.221Z,8.45
2022-10-11T08:27:17.803Z,7.70
2022-10-11T08:29:45.403Z,7.40
2022-10-11T08:32:14.596Z,7.28
2022-10-11T08:34:42.174Z,8.38
2022-10-11T08:37:09.811Z,8.98
2022-10-11T08:39:37.501Z,8.55
2022-10-11T08:42:07.887Z,8.98
2022-10-11T08:44:58.724Z,8.80
2022-10-11T08:47:29.861Z,8.90
2022-10-11T08:49:57.896Z,7.82
2022-10-11T08:52:27.515Z,8.40
2022-10-11T08:54:57.102Z,9.05
2022-10-11T08:57:26.599Z,8.52
2022-10-11T08:59:55.289Z,8.50
2022-10-11T09:02:38.943Z,8.07
2022-10-11T09:05:17.875Z,6.78
2022-10-11T09:07:51.114Z,7.78
2022-10-11T09:10:27.650Z,6.55
2022-10-11T09:12:59.588Z,5.63
2022-10-11T09:15:31.825Z,7.05
2022-10-11T09:18:05.363Z,5.30
2022-10-11T09:20:39.836Z,4.68
2022-10-11T09:23:12.751Z,5.88
2022-10-11T09:25:44.434Z,5.82
2022-10-11T09:28:17.451Z,4.22
2022-10-11T09:30:48.422Z,4.60
2022-10-11T09:33:19.761Z,5.47
2022-10-11T09:35:49.568Z,4.50
2022-10-11T09:38:27.566Z,3.88
2022-10-11T09:41:04.219Z,4.60
2022-10-11T09:43:32.028Z,4.15
2022-10-11T09:45:59.648Z,4.03
2022-10-11T09:48:28.866Z,2.92
2022-10-11T09:51:02.608Z,3.40
2022-10-11T09:53:50.243Z,4.07
2022-10-11T09:56:18.161Z,3.83
2022-10-11T09:58:45.796Z,2.53
2022-10-11T10:01:14.418Z,3.92
2022-10-11T10:03:43.282Z,4.18
2022-10-11T10:06:16.783Z,4.60
2022-10-11T10:08:47.034Z,2.67
2022-10-11T10:11:15.410Z,3.33
2022-10-11T10:13:45.326Z,3.70
2022-10-11T10:16:23.461Z,2.20
2022-10-11T10:18:52.647Z,1.90
2022-10-11T10:21:25.280Z,1.63
2022-10-11T10:23:54.801Z,2.25
2022-10-11T10:26:23.786Z,2.00
2022-10-11T10:28:59.749Z,2.47
2022-10-11T10:31:30.639Z,2.38
2022-10-11T10:33:58.767Z,2.00
2022-10-11T10:36:30.622Z,1.90
2022-10-11T10:39:00.770Z,1.60
2022-10-11T10:41:28.447Z,2.08
2022-10-11T10:43:57.098Z,1.67
2022-10-11T10:46:38.329Z,3.30
2022-10-11T10:52:06.342Z,1.83
2022-10-11T10:54:38.969Z,1.88
2022-10-11T10:57:12.051Z,2.45
2022-10-11T10:59:46.133Z,1.67
2022-10-11T11:02:39.134Z,1.75
2022-10-11T11:05:09.702Z,1.73
2022-10-11T11:07:43.180Z,2.20
2022-10-11T11:10:13.867Z,1.75
2022-10-11T11:12:45.698Z,1.55
2022-10-11T11:15:19.737Z,2.10
2022-10-11T11:18:00.599Z,1.58
2022-10-11T11:20:32.018Z,1.35
2022-10-11T11:23:04.888Z,1.73
2022-10-11T11:25:44.921Z,1.75
2022-10-11T11:28:27.666Z,1.40
2022-10-11T11:30:58.749Z,2.30
2022-10-11T11:33:32.265Z,2.20
2022-10-11T11:36:04.044Z,1.52
2022-10-11T11:38:40.690Z,1.58
2022-10-11T11:41:12.602Z,1.70
2022-10-11T11:43:46.333Z,1.50
2022-10-11T11:46:15.982Z,1.58
2022-10-11T11:48:44.250Z,2.30
2022-10-11T11:51:14.312Z,1.88
2022-10-11T11:53:49.003Z,1.88
2022-10-11T11:56:23.505Z,1.73
2022-10-11T11:58:54.827Z,1.70
2022-10-11T12:01:30.242Z,1.58
2022-10-11T12:04:00.672Z,1.90
2022-10-11T12:06:29.952Z,2.60
2022-10-11T12:09:05.185Z,2.00
2022-10-11T12:11:41.185Z,2.83
2022-10-11T12:14:32.644Z,1.48
2022-10-11T12:17:08.167Z,1.60
2022-10-11T12:19:36.425Z,2.10
2022-10-11T12:22:34.433Z,2.20
2022-10-11T12:25:23.468Z,2.00
2022-10-11T12:27:52.030Z,1.33
2022-10-11T12:30:38.254Z,2.25
2022-10-11T12:33:07.303Z,1.40
2022-10-11T12:35:48.785Z,2.38
2022-10-11T12:38:18.627Z,1.80
2022-10-11T12:40:48.607Z,1.80
2022-10-11T12:43:37.455Z,2.25
2022-10-11T12:46:23.717Z,1.90
2022-10-11T12:48:55.339Z,2.47
2022-10-11T12:51:31.805Z,2.03
2022-10-11T12:54:26.035Z,1.80
2022-10-11T12:57:03.277Z,2.00
2022-10-11T12:59:32.230Z,2.67
2022-10-11T13:02:00.549Z,1.80
2022-10-11T13:04:29.504Z,2.20
2022-10-11T13:07:01.088Z,1.85
2022-10-11T13:09:33.341Z,2.15
2022-10-11T13:12:05.151Z,2.47
2022-10-11T13:14:36.309Z,1.83
2022-10-11T13:17:08.796Z,1.92
2022-10-11T13:19:37.938Z,2.28
2022-10-11T13:22:07.392Z,2.00
2022-10-11T13:24:39.348Z,1.83
2022-10-11T13:27:08.641Z,1.67
2022-10-11T13:29:37.111Z,1.77
2022-10-11T13:32:07.202Z,1.60
2022-10-11T13:34:38.260Z,3.03
2022-10-11T13:37:06.247Z,1.55
2022-10-11T13:39:36.344Z,1.65
2022-10-11T13:42:05.645Z,2.13
2022-10-11T13:44:35.461Z,1.75
2022-10-11T13:47:03.266Z,2.15
2022-10-11T13:49:37.408Z,1.27
2022-10-11T13:52:07.099Z,1.83
2022-10-11T13:54:53.089Z,2.17
2022-10-11T13:57:21.442Z,1.80
2022-10-11T13:59:50.588Z,1.70
2022-10-11T14:02:19.540Z,1.60
2022-10-11T14:04:48.628Z,2.20
2022-10-11T14:07:21.209Z,1.73
2022-10-11T14:09:48.898Z,1.45
2022-10-11T14:12:30.419Z,1.88
2022-10-11T14:14:59.638Z,1.80
2022-10-11T14:17:35.258Z,1.52
2022-10-11T14:20:11.731Z,1.92
2022-10-11T14:22:39.696Z,2.63
2022-10-11T14:25:07.559Z,1.95
2022-10-11T14:27:35.198Z,1.70
2022-10-11T14:30:24.679Z,1.35
2022-10-11T14:32:54.837Z,1.63
2022-10-11T14:35:23.345Z,2.22
2022-10-11T14:37:51.229Z,2.05
2022-10-11T14:40:20.026Z,1.83
2022-10-11T14:42:47.716Z,1.38
2022-10-11T14:45:16.814Z,1.58
2022-10-11T14:47:45.237Z,2.28
2022-10-11T14:50:27.404Z,1.48
2022-10-11T14:52:55.089Z,1.48
2022-10-11T14:55:24.855Z,1.40
2022-10-11T14:57:52.554Z,1.60
2022-10-11T15:00:22.558Z,1.70
2022-10-11T15:02:50.633Z,1.25
2022-10-11T15:05:18.233Z,1.90
2022-10-11T15:07:45.864Z,1.27
2022-10-11T15:10:18.808Z,1.60
2022-10-11T15:12:46.542Z,2.17
2022-10-11T15:15:19.616Z,1.40
2022-10-11T15:17:49.746Z,1.67
2022-10-11T15:20:22.378Z,1.75
2022-10-11T15:22:50.022Z,1.90
2022-10-11T15:25:18.311Z,2.22
2022-10-11T15:27:46.111Z,1.85
2022-10-11T15:30:19.080Z,1.70
2022-10-11T15:32:47.001Z,1.52
2022-10-11T15:35:18.051Z,1.75
2022-10-11T15:37:46.037Z,1.25
2022-10-11T15:40:18.576Z,1.67
2022-10-11T15:42:48.429Z,1.38
2022-10-11T15:45:16.422Z,1.63
2022-10-11T15:47:44.171Z,1.17
2022-10-11T15:50:23.320Z,1.38
2022-10-11T15:52:51.447Z,1.65
2022-10-11T15:55:19.369Z,1.73
2022-10-11T15:57:47.020Z,1.25
2022-10-11T16:00:17.581Z,1.20
2022-10-11T16:02:49.069Z,1.73
2022-10-11T16:05:18.911Z,1.73
2022-10-11T16:07:46.697Z,1.58
2022-10-11T16:10:14.296Z,1.70
2022-10-11T16:12:41.970Z,1.90
2022-10-11T16:15:10.022Z,1.92
2022-10-11T16:17:37.634Z,1.50
2022-10-11T16:20:06.790Z,1.33
2022-10-11T16:22:36.154Z,2.10
2022-10-11T16:25:04.881Z,1.85
2022-10-11T16:27:32.895Z,1.52
2022-10-11T16:30:00.939Z,2.10
2022-10-11T16:32:28.601Z,1.58
2022-10-11T16:34:56.281Z,1.50
2022-10-11T16:37:24.065Z,1.73
2022-10-11T16:39:53.009Z,1.55
2022-10-11T16:42:20.685Z,2.80
2022-10-11T16:44:48.622Z,1.70
2022-10-11T16:47:16.911Z,1.48
2022-10-11T16:49:44.562Z,1.52
2022-10-11T16:52:14.074Z,1.65
2022-10-11T16:54:44.396Z,1.63
2022-10-11T16:57:14.209Z,2.45
2022-10-11T16:59:41.814Z,1.40
2022-10-11T17:02:14.836Z,2.20
2022-10-11T17:04:42.480Z,1.70
2022-10-11T17:07:12.411Z,3.30
2022-10-11T17:09:43.803Z,2.30
2022-10-11T17:12:14.004Z,2.10
2022-10-11T17:14:42.201Z,1.63
2022-10-11T17:17:10.654Z,3.30
2022-10-11T17:19:42.607Z,2.85
2022-10-11T17:22:13.112Z,2.25
2022-10-11T17:24:40.822Z,2.05
2022-10-11T17:27:08.561Z,2.33
2022-10-11T17:29:38.161Z,2.83
2022-10-11T17:32:06.134Z,4.38
2022-10-11T17:34:33.811Z,2.22
2022-10-11T17:37:01.406Z,2.60
2022-10-11T17:39:29.009Z,1.90
2022-10-11T17:41:56.735Z,2.72
2022-10-11T17:44:24.353Z,2.33
2022-10-11T17:46:53.389Z,2.38
2022-10-11T17:49:21.059Z,2.13
2022-10-11T17:51:48.643Z,3.25
2022-10-11T17:54:16.795Z,2.20
2022-10-11T17:56:44.447Z,2.25
2022-10-11T17:59:16.877Z,2.95
2022-10-11T18:01:44.595Z,5.35
2022-10-11T18:04:16.853Z,16.20
2022-10-11T18:06:46.565Z,5.07
2022-10-11T18:09:14.801Z,4.63
2022-10-11T18:11:42.880Z,5.13
2022-10-11T18:14:10.574Z,4.28
2022-10-11T18:16:38.738Z,3.40
2022-10-11T18:19:07.217Z,4.07
2022-10-11T18:21:37.743Z,2.88
2022-10-11T18:24:06.569Z,3.13
2022-10-11T18:26:34.673Z,2.80
2022-10-11T18:29:02.466Z,3.78
2022-10-11T18:31:31.102Z,3.20
2022-10-11T18:33:58.730Z,3.30
2022-10-11T18:36:27.965Z,3.70
2022-10-11T18:38:58.521Z,4.15
2022-10-11T18:41:30.580Z,3.85
2022-10-11T18:43:59.040Z,3.47
2022-10-11T18:46:27.544Z,3.72
2022-10-11T18:48:56.011Z,2.78
2022-10-11T18:51:24.880Z,3.25
2022-10-11T18:53:52.580Z,3.17
2022-10-11T18:56:23.050Z,3.42
2022-10-11T18:58:50.986Z,3.63
2022-10-11T19:01:20.551Z,3.95
2022-10-11T19:03:49.263Z,3.95
2022-10-11T19:06:18.168Z,4.93
2022-10-11T19:08:46.520Z,3.28
2022-10-11T19:11:15.627Z,5.95
2022-10-11T19:13:44.925Z,4.03
2022-10-11T19:16:13.625Z,4.55
2022-10-11T19:18:44.297Z,5.80
2022-10-11T19:21:13.218Z,4.50
2022-10-11T19:23:42.169Z,3.65
2022-10-11T19:26:13.998Z,3.97
2022-10-11T19:28:41.927Z,3.75
2022-10-11T19:31:11.906Z,5.50
2022-10-11T19:33:40.064Z,3.42
2022-10-11T19:36:07.940Z,4.63
2022-10-11T19:38:36.290Z,3.20
2022-10-11T19:41:04.697Z,3.10
2022-10-11T19:43:32.665Z,4.07
2022-10-11T19:46:00.752Z,3.92
2022-10-11T19:48:29.789Z,5.00
2022-10-11T19:51:05.578Z,4.72
2022-10-11T19:53:33.525Z,6.53
2022-10-11T19:56:02.190Z,4.88
2022-10-11T19:58:29.916Z,5.65
2022-10-11T20:01:02.351Z,5.30
2022-10-11T20:03:31.435Z,4.85
2022-10-11T20:06:00.474Z,4.13
2022-10-11T20:08:28.596Z,5.03
2022-10-11T20:10:56.273Z,4.47
2022-10-11T20:13:23.914Z,4.57
2022-10-11T20:15:51.541Z,4.82
2022-10-11T20:18:19.182Z,4.32
2022-10-11T20:20:54.962Z,4.25
2022-10-11T20:23:27.349Z,3.85
2022-10-11T20:25:59.100Z,4.53
2022-10-11T20:28:26.865Z,3.38
2022-10-11T20:30:54.542Z,4.53
2022-10-11T20:33:22.354Z,3.08
2022-10-11T20:36:01.687Z,5.50
2022-10-11T20:38:29.921Z,3.60
2022-10-11T20:40:57.785Z,4.30
2022-10-11T20:43:25.681Z,4.15
2022-10-11T20:46:00.021Z,3.95
2022-10-11T20:48:27.786Z,4.10
2022-10-11T20:50:55.430Z,2.92
2022-10-11T20:53:24.514Z,3.83
2022-10-11T20:55:52.409Z,4.57
2022-10-11T20:58:20.472Z,4.07
2022-10-11T21:00:48.643Z,3.38
2022-10-11T21:03:16.992Z,6.38
2022-10-11T21:05:44.625Z,3.55
2022-10-11T21:08:12.253Z,3.67
2022-10-11T21:10:41.209Z,3.83
2022-10-11T21:13:09.246Z,4.80
2022-10-11T21:15:36.892Z,5.88
2022-10-11T21:18:04.627Z,5.07
2022-10-11T21:20:32.231Z,4.60
2022-10-11T21:23:01.047Z,3.60
2022-10-11T21:25:28.621Z,4.70
2022-10-11T21:27:57.705Z,3.92
2022-10-11T21:30:25.307Z,3.80
2022-10-11T21:32:57.429Z,3.42
2022-10-11T21:35:25.039Z,3.28
2022-10-11T21:37:52.766Z,7.70
2022-10-11T21:40:20.388Z,5.65
2022-10-11T21:42:48.079Z,5.63
2022-10-11T21:45:17.231Z,6.05
2022-10-11T21:47:46.329Z,5.13
2022-10-11T21:50:14.168Z,5.72
2022-10-11T21:52:41.745Z,5.57
2022-10-11T21:55:10.512Z,5.93
2022-10-11T21:57:38.126Z,5.78
2022-10-11T22:00:06.858Z,5.22
2022-10-11T22:02:36.286Z,5.88
2022-10-11T22:05:04.347Z,4.82
2022-10-11T22:07:32.134Z,5.47
2022-10-11T22:09:59.721Z,4.38
2022-10-11T22:12:27.301Z,5.35
2022-10-11T22:14:54.901Z,5.38
2022-10-11T22:17:22.550Z,5.45
2022-10-11T22:19:51.516Z,5.28
2022-10-11T22:22:19.193Z,5.40
2022-10-11T22:24:46.802Z,5.60
2022-10-11T22:27:14.489Z,5.43
2022-10-11T22:29:42.088Z,6.00
2022-10-11T22:32:09.736Z,5.10
2022-10-11T22:34:37.334Z,4.70
2022-10-11T22:37:06.307Z,5.00
2022-10-11T22:39:33.883Z,4.40
2022-10-11T22:42:01.490Z,5.45
2022-10-11T22:44:29.122Z,5.18
2022-10-11T22:46:57.040Z,5.32
2022-10-11T22:49:24.719Z,5.50
2022-10-11T22:51:52.347Z,5.57
2022-10-11T22:54:21.246Z,4.10
2022-10-11T22:56:48.845Z,5.40
2022-10-11T22:59:16.400Z,4.70
2022-10-11T23:01:44.042Z,5.25
2022-10-11T23:04:11.613Z,5.10
2022-10-11T23:06:39.264Z,6.40
2022-10-11T23:09:06.953Z,5.10
2022-10-11T23:11:35.967Z,4.95
2022-10-11T23:14:03.625Z,4.57
2022-10-11T23:16:31.389Z,4.47
2022-10-11T23:18:59.008Z,3.75
2022-10-11T23:21:27.183Z,3.95
2022-10-11T23:23:55.234Z,4.20
2022-10-11T23:26:22.932Z,6.80
2022-10-11T23:28:54.347Z,5.13
2022-10-11T23:31:22.505Z,5.03
2022-10-11T23:33:50.267Z,4.20
2022-10-11T23:36:19.144Z,4.75
2022-10-11T23:38:50.647Z,4.93
2022-10-11T23:41:18.280Z,5.45
2022-10-11T23:43:46.034Z,5.28
2022-10-11T23:46:15.261Z,5.10
2022-10-11T23:48:42.931Z,6.05
2022-10-11T23:51:11.040Z,5.25
2022-10-11T23:53:38.640Z,5.68
2022-10-11T23:56:06.520Z,4.63
2022-10-11T23:58:34.182Z,4.78
